Time;durP1;ratioP1;P1;durP2;ratioP2;P2;SDS_P1;SDS_P2;PMS_P1;PMS_P2;Temp;Humidity;BMP_temperature;BMP_pressure;BME280_temperature;BME280_humidity;BME280_pressure;Samples;Min_cycle;Max_cycle;Signal;HPM_P1;HPM_P2
2023/01/30 00:01:43;;;;;;;17.00;12.67;;;1.30;2.20;;;;;;5003961;28;20184;-78
2023/01/30 00:04:11;;;;;;;15.60;11.83;;;1.30;3.80;;;;;;5004647;28;20211;-78
2023/01/30 00:06:38;;;;;;;15.83;11.63;;;1.30;3.70;;;;;;5004787;28;20203;-81
2023/01/30 00:09:03;;;;;;;26.80;12.87;;;1.40;3.30;;;;;;5004571;28;20188;-81
2023/01/30 00:11:32;;;;;;;14.60;11.03;;;1.40;6.00;;;;;;5005496;28;20187;-79
2023/01/30 00:13:58;;;;;;;16.73;11.63;;;1.40;6.40;;;;;;5007747;28;20262;-78
2023/01/30 00:16:24;;;;;;;15.57;11.93;;;1.40;7.80;;;;;;5007050;28;20426;-79
2023/01/30 00:18:50;;;;;;;17.80;11.47;;;1.40;8.30;;;;;;5024243;28;20650;-79
2023/01/30 00:21:16;;;;;;;15.00;11.97;;;1.50;11.00;;;;;;5024122;28;20187;-82
2023/01/30 00:23:42;;;;;;;19.10;12.07;;;1.50;11.80;;;;;;5009313;28;20192;-83
2023/01/30 00:26:08;;;;;;;16.60;11.83;;;1.50;15.00;;;;;;5008711;28;21169;-81
2023/01/30 00:28:34;;;;;;;15.70;11.77;;;1.50;13.40;;;;;;5010122;28;20661;-80
2023/01/30 00:31:00;;;;;;;16.80;12.17;;;1.50;13.90;;;;;;5010392;28;20278;-81
2023/01/30 00:33:26;;;;;;;15.63;11.67;;;1.60;12.50;;;;;;5010913;28;20215;-81
2023/01/30 00:35:53;;;;;;;17.73;12.07;;;1.50;13.60;;;;;;5011220;28;20213;-79
2023/01/30 00:38:20;;;;;;;14.47;11.10;;;1.50;13.90;;;;;;5008679;28;20184;-84
2023/01/30 00:40:46;;;;;;;16.57;12.03;;;1.50;15.10;;;;;;5025610;28;20172;-85
2023/01/30 00:48:44;;;;;;;16.30;11.60;;;1.60;12.60;;;;;;5010566;28;20670;-84
2023/01/30 00:51:10;;;;;;;15.20;11.37;;;1.60;13.10;;;;;;5009863;28;20176;-82
2023/01/30 00:53:36;;;;;;;16.73;12.53;;;1.60;14.80;;;;;;5010547;28;20275;-80
2023/01/30 00:56:01;;;;;;;15.20;11.47;;;1.60;14.40;;;;;;5010717;28;20212;-82
2023/01/30 00:58:27;;;;;;;16.53;12.27;;;3.50;16.60;;;;;;5011244;28;20184;-86
2023/01/30 01:00:53;;;;;;;16.40;11.40;;;1.70;13.60;;;;;;5011479;28;20663;-81
2023/01/30 01:03:19;;;;;;;15.37;11.43;;;1.70;18.60;;;;;;5012000;28;20261;-80
2023/01/30 01:05:45;;;;;;;15.80;11.40;;;1.70;19.40;;;;;;5010232;28;20203;-80
2023/01/30 01:08:11;;;;;;;14.40;11.57;;;1.70;33.80;;;;;;5011334;28;20194;-80
2023/01/30 01:10:37;;;;;;;14.93;10.50;;;1.70;18.90;;;;;;5011876;28;20739;-83
2023/01/30 01:13:03;;;;;;;16.77;11.53;;;1.70;21.30;;;;;;5010676;28;20566;-80
2023/01/30 01:15:29;;;;;;;17.03;11.70;;;1.70;18.60;;;;;;5009640;28;20196;-81
2023/01/30 01:17:54;;;;;;;14.20;10.67;;;1.80;26.10;;;;;;5009593;28;20221;-82
2023/01/30 01:20:20;;;;;;;15.93;11.60;;;1.80;27.90;;;;;;5010723;28;20194;-83
2023/01/30 01:22:50;;;;;;;14.43;11.40;;;1.80;28.70;;;;;;5010772;28;20194;-81
2023/01/30 01:25:18;;;;;;;15.37;10.87;;;1.80;22.70;;;;;;5009944;28;20184;-80
2023/01/30 01:27:43;;;;;;;18.50;11.70;;;1.80;24.30;;;;;;5010234;28;20233;-82
2023/01/30 01:30:10;;;;;;;16.60;11.93;;;1.80;26.40;;;;;;5008031;28;20793;-79
2023/01/30 01:32:35;;;;;;;15.50;11.20;;;1.80;22.50;;;;;;5008339;28;20210;-80
2023/01/30 01:35:01;;;;;;;16.30;11.40;;;1.90;21.70;;;;;;5009015;28;20589;-82
2023/01/30 01:37:26;;;;;;;16.67;12.27;;;2.30;23.70;;;;;;5008243;28;20214;-80
2023/01/30 01:42:37;;;;;;;16.00;11.37;;;1.90;27.20;;;;;;5010082;28;20609;-82
2023/01/30 01:45:16;;;;;;;14.60;11.50;;;1.90;31.00;;;;;;5008676;28;20192;-80
2023/01/30 01:47:55;;;;;;;16.97;11.67;;;1.90;35.70;;;;;;5009373;28;20586;-83
2023/01/30 01:50:27;;;;;;;16.17;11.43;;;1.90;36.80;;;;;;5009760;28;20184;-79
2023/01/30 01:52:54;;;;;;;15.50;10.90;;;2.00;32.20;;;;;;5007657;28;20194;-82
2023/01/30 01:55:22;;;;;;;17.27;12.50;;;2.00;32.40;;;;;;5009021;28;20219;-79
2023/01/30 01:57:59;;;;;;;16.63;11.63;;;2.00;42.70;;;;;;5009290;28;20203;-79
2023/01/30 02:00:25;;;;;;;18.13;14.93;;;2.00;53.30;;;;;;5007432;28;20398;-80
2023/01/30 02:02:53;;;;;;;17.90;13.67;;;1.90;53.50;;;;;;5009165;28;20210;-81
2023/01/30 02:05:19;;;;;;;17.97;13.10;;;1.90;61.20;;;;;;5008037;28;20195;-81
2023/01/30 02:07:48;;;;;;;16.10;12.03;;;1.90;67.20;;;;;;5007084;28;20260;-80
2023/01/30 02:10:22;;;;;;;15.43;11.73;;;1.90;67.10;;;;;;5022915;28;20749;-82
2023/01/30 02:12:49;;;;;;;16.13;12.43;;;1.90;93.00;;;;;;5008486;28;20237;-79
2023/01/30 02:15:16;;;;;;;16.20;11.60;;;1.90;99.90;;;;;;5023071;28;20187;-81
2023/01/30 02:17:41;;;;;;;18.73;13.17;;;1.80;88.30;;;;;;5008867;28;20223;-81
2023/01/30 02:20:44;;;;;;;18.97;13.23;;;1.80;96.80;;;;;;5008796;28;20203;-80
2023/01/30 02:23:18;;;;;;;18.07;12.57;;;1.80;99.90;;;;;;5006583;28;20215;-80
2023/01/30 02:26:20;;;;;;;18.30;13.47;;;1.80;99.90;;;;;;5006205;28;20203;-79
2023/01/30 02:28:51;;;;;;;18.13;12.97;;;1.80;99.90;;;;;;5021364;28;20186;-78
2023/01/30 02:31:52;;;;;;;17.77;12.77;;;1.70;99.90;;;;;;5006259;28;21178;-78
2023/01/30 02:34:55;;;;;;;19.07;13.23;;;1.80;99.90;;;;;;5006301;28;20210;-78
2023/01/30 02:37:36;;;;;;;18.83;12.43;;;1.80;99.90;;;;;;5004687;28;20215;-79
2023/01/30 02:40:17;;;;;;;19.43;13.77;;;1.80;99.90;;;;;;5008792;28;20470;-78
2023/01/30 02:42:49;;;;;;;18.80;13.63;;;1.80;99.90;;;;;;5004678;28;20187;-79
2023/01/30 02:45:23;;;;;;;17.40;12.97;;;1.80;99.90;;;;;;5004975;28;20187;-79
2023/01/30 02:48:03;;;;;;;20.37;13.40;;;1.80;99.90;;;;;;5006386;28;20545;-78
2023/01/30 02:51:07;;;;;;;20.15;16.05;;;1.90;99.90;;;;;;5003739;28;21481;-76
2023/01/30 02:53:33;;;;;;;18.50;13.90;;;1.90;99.90;;;;;;4983101;28;20223;-78
2023/01/30 02:55:59;;;;;;;18.27;13.13;;;1.90;99.90;;;;;;5000549;28;20225;-78
2023/01/30 02:58:29;;;;;;;17.73;12.53;;;1.90;99.90;;;;;;5004758;28;20230;-78
2023/01/30 03:01:27;;;;;;;17.53;12.87;;;2.00;99.90;;;;;;5004988;28;20180;-79
2023/01/30 03:04:10;;;;;;;17.07;12.00;;;2.00;99.90;;;;;;5005168;28;20184;-78
2023/01/30 03:06:49;;;;;;;16.30;11.80;;;2.00;99.90;;;;;;5003644;28;20214;-77
2023/01/30 03:09:33;;;;;;;17.10;12.97;;;2.00;99.90;;;;;;5004937;28;20732;-77
2023/01/30 03:12:05;;;;;;;16.73;11.97;;;2.00;99.90;;;;;;5020277;28;20195;-78
2023/01/30 03:14:58;;;;;;;18.93;13.37;;;2.00;99.90;;;;;;5003722;28;20187;-80
2023/01/30 03:17:25;;;;;;;17.83;12.07;;;2.00;99.90;;;;;;5002466;28;20230;-79
2023/01/30 03:19:52;;;;;;;19.60;12.80;;;2.00;99.90;;;;;;5005033;28;20215;-78
2023/01/30 03:22:20;;;;;;;19.20;14.90;;;2.00;99.90;;;;;;5003430;28;20414;-78
2023/01/30 03:24:45;;;;;;;17.33;13.00;;;2.00;99.90;;;;;;5004298;28;20186;-79
2023/01/30 03:27:12;;;;;;;19.63;12.23;;;2.00;99.90;;;;;;5004037;28;20207;-78
2023/01/30 03:29:38;;;;;;;18.07;12.27;;;2.00;99.90;;;;;;5004096;28;20679;-80
2023/01/30 03:32:04;;;;;;;17.27;12.70;;;2.00;99.90;;;;;;5005471;28;20297;-78
2023/01/30 03:34:30;;;;;;;16.10;12.27;;;2.10;99.90;;;;;;5004786;28;20191;-77
2023/01/30 03:36:56;;;;;;;17.17;14.60;;;2.10;99.90;;;;;;5003254;28;20521;-79
2023/01/30 03:39:23;;;;;;;16.67;12.53;;;2.10;99.90;;;;;;5005638;28;20273;-77
2023/01/30 03:41:49;;;;;;;16.87;12.07;;;2.20;99.90;;;;;;5005855;28;20490;-79
2023/01/30 03:44:15;;;;;;;16.87;12.33;;;2.20;99.90;;;;;;5003357;28;20179;-79
2023/01/30 03:46:40;;;;;;;16.17;11.47;;;2.20;99.90;;;;;;5003800;28;20220;-79
2023/01/30 03:49:06;;;;;;;16.77;12.00;;;2.20;99.90;;;;;;5003247;28;20219;-78
2023/01/30 03:51:31;;;;;;;16.60;12.07;;;2.20;99.90;;;;;;5005279;28;20672;-80
2023/01/30 03:53:57;;;;;;;17.40;12.10;;;2.20;99.90;;;;;;5003617;28;20564;-79
2023/01/30 03:56:23;;;;;;;15.77;12.10;;;2.30;99.90;;;;;;5004815;28;20274;-79
2023/01/30 03:58:48;;;;;;;17.90;12.23;;;2.30;99.90;;;;;;5003436;28;20180;-80
2023/01/30 04:01:14;;;;;;;15.87;11.90;;;2.20;99.90;;;;;;5005790;28;20257;-80
2023/01/30 04:03:39;;;;;;;15.97;11.30;;;2.20;99.90;;;;;;5004933;28;20536;-78
2023/01/30 04:06:05;;;;;;;15.10;9.67;;;2.20;99.90;;;;;;5005164;28;20238;-78
2023/01/30 04:08:30;;;;;;;18.27;11.93;;;2.20;99.90;;;;;;5004753;28;20215;-79
2023/01/30 04:10:56;;;;;;;18.83;12.07;;;2.20;99.90;;;;;;5004978;28;20738;-80
2023/01/30 04:13:22;;;;;;;19.33;12.60;;;2.20;99.90;;;;;;5005325;28;20607;-77
2023/01/30 04:15:47;;;;;;;17.60;12.10;;;2.20;99.90;;;;;;5004199;28;20282;-77
2023/01/30 04:18:13;;;;;;;17.03;11.67;;;2.20;99.90;;;;;;5004482;28;20753;-81
2023/01/30 04:20:38;;;;;;;20.43;13.17;;;2.20;1.00;;;;;;5003789;28;20184;-79
2023/01/30 04:23:04;;;;;;;18.27;12.70;;;2.20;1.00;;;;;;5005155;28;20180;-78
2023/01/30 04:25:29;;;;;;;19.40;12.87;;;2.10;1.00;;;;;;5003392;28;20180;-80
2023/01/30 04:27:55;;;;;;;16.87;12.30;;;2.20;1.00;;;;;;5005589;28;20188;-80
2023/01/30 04:30:20;;;;;;;18.03;12.20;;;2.20;1.00;;;;;;5004469;28;20187;-76
2023/01/30 04:32:46;;;;;;;19.17;13.00;;;2.20;1.00;;;;;;5004250;28;20689;-79
2023/01/30 04:35:11;;;;;;;17.57;12.30;;;2.20;1.00;;;;;;5004288;28;20191;-80
2023/01/30 04:37:37;;;;;;;18.27;12.10;;;2.20;26.20;;;;;;5005027;28;20223;-79
2023/01/30 04:40:03;;;;;;;17.97;12.17;;;2.30;99.90;;;;;;5004202;28;20187;-79
2023/01/30 04:42:29;;;;;;;18.03;11.80;;;2.30;99.90;;;;;;5004839;28;20188;-83
2023/01/30 04:44:54;;;;;;;16.50;12.47;;;2.30;99.90;;;;;;5006462;28;20206;-82
2023/01/30 04:47:20;;;;;;;20.03;12.87;;;2.30;1.00;;;;;;5007136;28;20212;-81
2023/01/30 04:49:45;;;;;;;17.63;12.23;;;2.20;99.90;;;;;;5006817;28;20191;-81
2023/01/30 04:52:11;;;;;;;17.77;12.13;;;2.20;99.90;;;;;;5006991;28;20581;-81
2023/01/30 04:54:36;;;;;;;19.63;12.73;;;2.10;99.90;;;;;;5006331;28;20195;-79
2023/01/30 04:57:02;;;;;;;20.13;13.95;;;2.10;99.90;;;;;;5004249;28;20431;-85
2023/01/30 04:59:28;;;;;;;18.00;12.60;;;2.10;99.90;;;;;;5008964;28;20194;-80
2023/01/30 05:01:54;;;;;;;18.47;12.43;;;2.00;99.90;;;;;;5009280;28;20211;-82
2023/01/30 05:04:19;;;;;;;18.07;12.50;;;2.00;99.90;;;;;;5010244;28;20334;-82
2023/01/30 05:06:45;;;;;;;17.87;12.57;;;2.00;99.90;;;;;;5009399;28;20405;-81
2023/01/30 05:09:10;;;;;;;18.13;12.53;;;2.00;1.00;;;;;;5010693;28;20187;-78
2023/01/30 05:11:36;;;;;;;19.53;12.60;;;2.00;99.90;;;;;;5009840;28;20176;-80
2023/01/30 05:14:02;;;;;;;16.70;11.43;;;2.00;1.00;;;;;;5009298;28;20737;-81
2023/01/30 05:16:27;;;;;;;22.77;12.40;;;2.00;1.00;;;;;;5009535;28;20369;-80
2023/01/30 05:18:53;;;;;;;18.77;12.30;;;2.00;1.00;;;;;;5009800;28;20266;-79
2023/01/30 05:21:21;;;;;;;18.40;12.17;;;2.00;1.00;;;;;;5008615;28;20680;-79
2023/01/30 05:23:47;;;;;;;18.40;12.30;;;2.00;1.00;;;;;;5006626;28;20188;-81
2023/01/30 05:26:14;;;;;;;17.20;11.63;;;2.00;1.00;;;;;;5026241;23;20262;-78
2023/01/30 05:28:40;;;;;;;16.63;11.47;;;2.00;1.00;;;;;;5017566;28;20195;-79
2023/01/30 05:31:11;;;;;;;19.57;11.83;;;2.00;1.00;;;;;;5018749;28;21502;-78
2023/01/30 05:33:38;;;;;;;15.80;11.23;;;2.10;64.30;;;;;;5017971;28;20237;-79
2023/01/30 05:36:04;;;;;;;17.10;10.93;;;2.10;62.50;;;;;;5027598;23;20227;-77
2023/01/30 05:38:30;;;;;;;14.97;10.57;;;2.10;99.90;;;;;;5005231;28;20188;-77
2023/01/30 05:41:00;;;;;;;15.80;10.50;;;2.10;92.80;;;;;;5005480;28;20188;-77
2023/01/30 05:43:26;;;;;;;15.80;10.10;;;2.10;99.90;;;;;;5004450;28;20191;-77
2023/01/30 05:45:53;;;;;;;17.33;11.47;;;2.20;99.90;;;;;;5005884;28;20203;-77
2023/01/30 05:48:19;;;;;;;17.73;11.10;;;2.20;99.90;;;;;;5007108;28;20230;-77
2023/01/30 05:50:45;;;;;;;14.03;9.97;;;2.20;99.90;;;;;;5013536;28;20599;-76
2023/01/30 05:53:11;;;;;;;15.17;10.30;;;2.30;99.90;;;;;;5013069;28;20188;-78
2023/01/30 05:55:37;;;;;;;16.77;10.60;;;2.30;99.90;;;;;;5012192;28;20889;-78
2023/01/30 05:58:02;;;;;;;15.97;10.10;;;2.40;99.90;;;;;;5013764;28;20215;-78
2023/01/30 06:00:28;;;;;;;15.20;9.40;;;2.40;99.90;;;;;;5013305;28;20271;-77
2023/01/30 06:02:54;;;;;;;14.93;9.50;;;2.40;99.90;;;;;;5013754;28;20219;-78
2023/01/30 06:05:19;;;;;;;13.10;9.17;;;2.50;96.40;;;;;;5012949;28;20192;-78
2023/01/30 06:07:45;;;;;;;13.77;9.47;;;2.40;83.50;;;;;;5014379;28;20188;-78
2023/01/30 06:10:10;;;;;;;13.80;10.03;;;2.50;1.00;;;;;;5011713;28;20195;-78
2023/01/30 06:12:36;;;;;;;13.97;9.53;;;2.60;99.90;;;;;;5026994;28;20202;-78
2023/01/30 06:15:02;;;;;;;12.30;9.17;;;2.60;29.80;;;;;;5013651;28;21158;-77
2023/01/30 06:17:27;;;;;;;13.07;9.40;;;2.70;99.90;;;;;;5014859;28;20210;-78
2023/01/30 06:19:53;;;;;;;12.00;8.70;;;2.70;99.90;;;;;;5012362;28;20184;-78
2023/01/30 06:22:19;;;;;;;11.87;9.30;;;2.80;1.00;;;;;;5014076;28;20211;-77
2023/01/30 06:24:44;;;;;;;10.87;8.20;;;2.90;1.00;;;;;;5012786;28;20199;-78
2023/01/30 06:27:10;;;;;;;10.63;8.10;;;2.90;65.90;;;;;;5012185;28;20281;-77
2023/01/30 06:29:35;;;;;;;11.33;7.67;;;3.00;99.90;;;;;;5012221;28;20237;-78
2023/01/30 06:32:01;;;;;;;11.17;7.67;;;3.10;99.90;;;;;;5013192;28;20283;-77
2023/01/30 06:34:28;;;;;;;11.53;8.13;;;3.10;99.90;;;;;;5014004;28;20190;-78
2023/01/30 06:36:54;;;;;;;10.40;7.87;;;3.20;99.90;;;;;;5012286;28;20331;-78
2023/01/30 06:39:20;;;;;;;10.43;8.03;;;3.20;99.90;;;;;;5013018;28;20566;-78
2023/01/30 06:41:45;;;;;;;8.80;6.70;;;3.20;29.80;;;;;;5012912;28;20187;-78
2023/01/30 06:44:11;;;;;;;10.00;8.83;;;3.20;38.00;;;;;;5012795;28;20410;-77
2023/01/30 06:46:36;;;;;;;9.50;8.50;;;3.40;1.00;;;;;;5012836;28;20422;-78
2023/01/30 06:49:02;;;;;;;9.13;7.23;;;3.40;99.90;;;;;;5014870;28;20203;-78
2023/01/30 06:51:27;;;;;;;7.87;6.63;;;3.60;66.90;;;;;;5016068;28;20194;-78
2023/01/30 06:53:53;;;;;;;8.73;6.33;;;3.60;1.00;;;;;;5018108;28;20214;-76
2023/01/30 06:56:19;;;;;;;6.77;6.00;;;3.60;1.00;;;;;;5016697;28;20272;-78
2023/01/30 06:58:44;;;;;;;7.53;6.03;;;3.70;99.90;;;;;;5015702;28;20198;-78
2023/01/30 07:01:10;;;;;;;6.87;5.23;;;3.70;99.90;;;;;;5017590;28;20247;-77
2023/01/30 07:03:36;;;;;;;5.93;4.90;;;3.70;99.90;;;;;;5019166;28;20266;-78
2023/01/30 07:06:02;;;;;;;4.60;4.20;;;3.70;99.90;;;;;;5019528;28;20207;-78
2023/01/30 07:08:27;;;;;;;6.10;4.37;;;3.80;99.90;;;;;;5017186;28;20198;-77
2023/01/30 07:10:53;;;;;;;5.63;4.63;;;3.80;99.90;;;;;;5014470;28;20199;-78
2023/01/30 07:13:19;;;;;;;5.53;4.70;;;3.80;42.70;;;;;;5015146;28;20179;-77
2023/01/30 07:15:45;;;;;;;6.33;4.80;;;3.80;99.90;;;;;;5014214;28;20203;-77
2023/01/30 07:18:11;;;;;;;6.03;5.23;;;3.90;99.90;;;;;;5014620;28;20222;-77
2023/01/30 07:20:36;;;;;;;7.00;5.60;;;3.90;99.90;;;;;;5014073;28;20184;-77
2023/01/30 07:23:02;;;;;;;8.13;5.90;;;4.00;99.90;;;;;;5014490;28;20195;-78
2023/01/30 07:25:29;;;;;;;7.37;6.03;;;4.10;99.90;;;;;;5016889;28;20180;-79
2023/01/30 07:27:57;;;;;;;8.00;6.17;;;4.00;1.00;;;;;;5017850;28;20329;-79
2023/01/30 07:30:23;;;;;;;6.83;5.87;;;4.10;99.90;;;;;;5017697;28;20183;-78
2023/01/30 07:32:59;;;;;;;8.57;6.30;;;4.00;99.90;;;;;;5016909;28;20677;-77
2023/01/30 07:35:27;;;;;;;8.70;6.27;;;4.10;99.90;;;;;;5015414;28;20191;-78
2023/01/30 07:37:52;;;;;;;7.63;5.73;;;4.10;1.00;;;;;;5016675;28;20203;-78
2023/01/30 07:40:19;;;;;;;6.87;4.43;;;4.10;1.00;;;;;;5016651;28;20629;-78
2023/01/30 07:43:07;;;;;;;9.43;4.80;;;4.10;1.00;;;;;;5014685;28;20222;-79
2023/01/30 07:45:41;;;;;;;7.77;4.30;;;4.10;1.00;;;;;;5016700;28;20187;-78
2023/01/30 07:48:09;;;;;;;8.23;4.03;;;4.00;1.00;;;;;;5015802;28;20194;-78
2023/01/30 07:50:35;;;;;;;7.37;4.50;;;4.10;1.00;;;;;;5017483;28;20192;-79
2023/01/30 07:53:09;;;;;;;7.40;4.30;;;4.00;1.00;;;;;;5015637;28;20219;-79
2023/01/30 07:55:35;;;;;;;5.90;3.47;;;4.00;99.90;;;;;;5014715;28;20190;-78
2023/01/30 07:58:00;;;;;;;7.80;3.60;;;4.00;1.00;;;;;;5015334;28;20234;-78
2023/01/30 08:00:26;;;;;;;5.63;3.03;;;4.10;1.00;;;;;;5013684;28;20286;-78
2023/01/30 08:02:52;;;;;;;9.07;3.70;;;4.00;99.90;;;;;;5015311;28;20188;-78
2023/01/30 08:05:18;;;;;;;4.40;2.90;;;4.10;1.00;;;;;;5014968;28;20205;-77
2023/01/30 08:07:46;;;;;;;3.77;2.63;;;4.20;99.90;;;;;;5014761;28;20195;-78
2023/01/30 08:10:11;;;;;;;3.20;2.37;;;4.20;99.90;;;;;;5015391;28;20184;-78
2023/01/30 08:12:39;;;;;;;5.53;3.00;;;4.20;99.90;;;;;;5014315;28;20206;-78
2023/01/30 08:15:06;;;;;;;8.53;2.60;;;4.20;1.00;;;;;;5015915;28;20258;-78
2023/01/30 08:17:31;;;;;;;3.83;2.40;;;4.10;1.00;;;;;;5014817;28;20223;-77
2023/01/30 08:19:57;;;;;;;6.27;2.57;;;4.10;1.00;;;;;;5013796;28;20187;-78
2023/01/30 08:22:22;;;;;;;6.70;2.73;;;4.10;99.90;;;;;;5015887;28;20192;-77
2023/01/30 08:24:48;;;;;;;6.77;2.77;;;4.10;99.90;;;;;;5015603;28;20251;-78
2023/01/30 08:27:13;;;;;;;7.20;3.80;;;4.20;99.90;;;;;;5016272;28;20246;-78
2023/01/30 08:29:39;;;;;;;5.77;2.63;;;4.30;99.90;;;;;;5014317;28;20222;-77
2023/01/30 08:32:04;;;;;;;5.63;2.40;;;4.40;99.90;;;;;;5014976;28;20246;-78
2023/01/30 08:34:30;;;;;;;9.17;3.00;;;4.50;99.90;;;;;;5018382;28;20187;-77
2023/01/30 08:36:56;;;;;;;8.30;2.90;;;4.50;99.90;;;;;;5015911;28;20281;-78
2023/01/30 08:39:21;;;;;;;7.97;2.63;;;4.40;99.90;;;;;;5006632;28;20192;-78
2023/01/30 08:41:47;;;;;;;7.80;2.37;;;4.40;99.90;;;;;;5010251;28;20194;-77
2023/01/30 08:44:13;;;;;;;8.03;3.03;;;4.40;99.90;;;;;;5016237;28;20206;-77
2023/01/30 08:46:39;;;;;;;9.50;2.90;;;4.30;99.90;;;;;;5018957;28;20294;-77
2023/01/30 08:49:05;;;;;;;9.17;2.50;;;4.40;99.90;;;;;;5018871;28;20191;-77
2023/01/30 08:51:31;;;;;;;6.40;2.83;;;4.50;99.90;;;;;;5017296;28;20218;-77
2023/01/30 08:53:56;;;;;;;7.57;2.53;;;4.60;99.90;;;;;;5019094;28;20199;-77
2023/01/30 08:56:22;;;;;;;11.73;3.30;;;4.70;99.90;;;;;;5018757;28;20215;-77
2023/01/30 08:58:48;;;;;;;9.77;2.60;;;4.70;99.90;;;;;;5018830;28;20191;-80
2023/01/30 09:01:14;;;;;;;9.60;2.93;;;4.60;99.90;;;;;;5018733;28;20194;-76
2023/01/30 09:03:40;;;;;;;9.00;2.40;;;4.70;99.90;;;;;;5018819;28;20191;-78
2023/01/30 09:06:06;;;;;;;10.77;3.00;;;4.70;99.90;;;;;;5018802;28;20211;-77
2023/01/30 09:08:31;;;;;;;9.30;2.70;;;4.70;99.90;;;;;;5017662;28;20188;-77
2023/01/30 09:10:59;;;;;;;4.80;1.83;;;4.50;99.90;;;;;;5016593;28;20194;-77
2023/01/30 09:13:25;;;;;;;14.87;2.90;;;4.40;99.90;;;;;;5017724;28;20673;-77
2023/01/30 09:15:51;;;;;;;6.20;1.97;;;4.50;99.90;;;;;;5017563;28;20696;-78
2023/01/30 09:18:17;;;;;;;7.17;2.33;;;4.60;99.90;;;;;;5015565;28;20211;-77
2023/01/30 09:20:42;;;;;;;7.47;2.20;;;4.70;99.90;;;;;;5010723;28;20187;-77
2023/01/30 09:23:08;;;;;;;6.30;1.97;;;4.80;99.90;;;;;;5013529;28;20180;-79
2023/01/30 09:25:34;;;;;;;9.13;2.23;;;4.60;99.90;;;;;;5011768;28;20257;-77
2023/01/30 09:27:59;;;;;;;10.23;2.17;;;4.70;99.90;;;;;;5009385;28;20736;-75
2023/01/30 09:30:25;;;;;;;8.73;2.57;;;4.80;99.90;;;;;;5008500;28;20194;-77
2023/01/30 09:32:51;;;;;;;12.10;2.20;;;4.90;99.90;;;;;;5009455;28;20190;-78
2023/01/30 09:35:17;;;;;;;11.53;3.07;;;4.90;99.90;;;;;;5008614;28;20282;-76
2023/01/30 09:37:50;;;;;;;10.37;2.57;;;4.90;99.90;;;;;;5008970;28;20242;-76
2023/01/30 09:40:20;;;;;;;14.07;2.90;;;4.90;99.90;;;;;;5025761;28;20193;-77
2023/01/30 09:42:52;;;;;;;8.67;2.80;;;5.00;99.90;;;;;;5011168;28;20643;-76
2023/01/30 09:45:55;;;;;;;23.77;5.67;;;4.90;99.90;;;;;;5009673;28;20638;-79
2023/01/30 09:48:33;;;;;;;10.93;3.03;;;4.90;99.90;;;;;;5012231;28;21170;-78
2023/01/30 09:51:20;;;;;;;8.83;2.30;;;5.00;99.90;;;;;;5009543;28;20184;-76
2023/01/30 09:53:55;;;;;;;9.70;2.37;;;5.40;99.90;;;;;;5012985;28;20563;-77
2023/01/30 09:56:21;;;;;;;7.13;2.10;;;5.20;1.00;;;;;;5013141;28;20214;-77
2023/01/30 09:59:02;;;;;;;8.43;2.33;;;5.30;1.00;;;;;;5011628;28;20559;-75
2023/01/30 10:01:33;;;;;;;6.80;2.00;;;5.30;1.00;;;;;;5012643;28;20665;-77
2023/01/30 10:04:27;;;;;;;8.93;2.10;;;5.70;1.00;;;;;;5005539;28;20180;-77
2023/01/30 10:07:06;;;;;;;9.27;2.37;;;5.40;1.00;;;;;;5003823;28;20227;-76
2023/01/30 10:10:01;;;;;;;10.07;3.10;;;5.40;1.00;;;;;;5013268;28;20661;-77
2023/01/30 10:12:46;;;;;;;10.43;2.50;;;5.30;1.00;;;;;;5012140;28;20183;-77
2023/01/30 10:15:37;;;;;;;10.67;2.60;;;5.30;1.00;;;;;;5009226;28;20191;-76
2023/01/30 10:18:13;;;;;;;9.70;2.37;;;5.20;68.80;;;;;;5011752;28;20724;-76
2023/01/30 10:20:58;;;;;;;12.63;2.40;;;4.90;2.10;;;;;;5011812;28;20207;-76
2023/01/30 10:23:52;;;;;;;11.57;3.10;;;4.80;45.90;;;;;;5010212;28;20183;-77
2023/01/30 10:26:24;;;;;;;7.13;2.10;;;4.70;55.90;;;;;;5010581;28;20207;-78
2023/01/30 10:28:55;;;;;;;9.67;2.50;;;4.90;63.10;;;;;;5008866;28;20188;-77
2023/01/30 10:31:26;;;;;;;10.73;2.90;;;5.00;36.60;;;;;;5010909;28;20187;-76
2023/01/30 10:34:06;;;;;;;9.80;2.83;;;5.00;36.40;;;;;;5009865;28;20729;-77
2023/01/30 10:36:39;;;;;;;11.53;3.37;;;5.30;7.40;;;;;;5009534;28;20219;-77
2023/01/30 10:39:38;;;;;;;11.57;3.10;;;5.40;12.30;;;;;;5011645;28;21084;-77
2023/01/30 10:42:12;;;;;;;9.63;2.20;;;5.40;3.40;;;;;;5011129;28;20233;-76
2023/01/30 10:44:41;;;;;;;9.17;1.87;;;5.50;1.00;;;;;;5010856;28;20700;-77
2023/01/30 10:47:26;;;;;;;9.97;2.67;;;5.60;1.00;;;;;;5010405;28;20210;-76
2023/01/30 10:49:57;;;;;;;12.00;2.63;;;5.70;1.00;;;;;;5010077;28;20601;-81
2023/01/30 10:52:48;;;;;;;9.17;2.20;;;5.70;1.00;;;;;;5008080;28;20187;-77
2023/01/30 10:55:18;;;;;;;10.47;2.03;;;5.80;1.00;;;;;;5009624;28;20191;-77
2023/01/30 10:58:16;;;;;;;9.27;2.23;;;5.70;1.00;;;;;;5010618;28;20222;-77
2023/01/30 11:00:53;;;;;;;10.97;2.07;;;5.70;1.00;;;;;;5010989;28;20215;-77
2023/01/30 11:03:57;;;;;;;12.20;2.73;;;5.70;1.00;;;;;;5024482;28;20192;-77
2023/01/30 11:06:24;;;;;;;10.93;2.00;;;5.60;1.00;;;;;;5010692;28;20670;-78
2023/01/30 11:08:51;;;;;;;14.03;2.57;;;5.60;1.00;;;;;;5014956;28;20610;-79
2023/01/30 11:11:20;;;;;;;10.63;2.13;;;5.80;1.00;;;;;;5013869;28;20184;-77
2023/01/30 11:13:45;;;;;;;9.17;2.40;;;5.80;1.00;;;;;;5025653;28;20707;-79
2023/01/30 11:16:12;;;;;;;12.60;2.47;;;5.80;1.00;;;;;;5007406;28;20219;-77
2023/01/30 11:18:49;;;;;;;10.63;2.23;;;5.60;1.00;;;;;;5010419;28;20212;-78
2023/01/30 11:21:23;;;;;;;10.50;2.47;;;5.60;1.00;;;;;;5008893;28;20179;-77
2023/01/30 11:23:49;;;;;;;10.37;2.57;;;5.50;1.00;;;;;;5008893;28;20193;-77
2023/01/30 11:26:22;;;;;;;14.77;2.87;;;5.50;1.00;;;;;;5005760;28;20207;-77
2023/01/30 11:28:48;;;;;;;9.63;2.20;;;5.80;1.00;;;;;;5008270;28;20180;-77
2023/01/30 11:31:28;;;;;;;10.57;2.73;;;5.70;1.00;;;;;;5007851;28;20195;-77
2023/01/30 11:34:11;;;;;;;11.10;2.40;;;5.90;1.00;;;;;;5007655;28;20747;-76
2023/01/30 11:36:37;;;;;;;10.17;2.57;;;6.10;1.00;;;;;;5009616;28;20219;-77
2023/01/30 11:39:12;;;;;;;7.87;2.80;;;6.30;1.00;;;;;;5008555;28;20865;-77
2023/01/30 11:42:08;;;;;;;11.77;2.13;;;6.60;1.00;;;;;;5005185;28;20179;-76
2023/01/30 11:44:36;;;;;;;10.40;2.47;;;6.40;1.00;;;;;;5005115;28;20272;-77
2023/01/30 11:47:14;;;;;;;7.80;2.17;;;6.30;1.00;;;;;;5005070;28;20203;-77
2023/01/30 11:49:47;;;;;;;9.90;2.67;;;6.30;1.00;;;;;;5021625;28;20190;-76
2023/01/30 11:52:17;;;;;;;10.70;2.30;;;6.30;1.00;;;;;;5003990;28;20195;-76
2023/01/30 11:54:44;;;;;;;7.33;1.90;;;6.10;1.00;;;;;;5003211;28;20867;-77
2023/01/30 11:57:13;;;;;;;12.23;2.63;;;6.10;1.00;;;;;;5003854;28;20244;-76
2023/01/30 11:59:47;;;;;;;6.03;1.90;;;6.10;1.00;;;;;;5002188;28;20191;-76
2023/01/30 12:02:29;;;;;;;8.43;2.27;;;6.00;1.00;;;;;;5004711;28;20191;-76
2023/01/30 12:05:43;;;;;;;11.47;2.30;;;6.00;1.00;;;;;;5002823;28;20676;-77
2023/01/30 12:08:23;;;;;;;9.60;2.13;;;6.10;1.00;;;;;;5004287;28;20196;-77
2023/01/30 12:11:00;;;;;;;9.30;2.00;;;6.00;1.00;;;;;;5006718;28;20222;-78
2023/01/30 12:13:40;;;;;;;10.00;2.00;;;6.00;1.00;;;;;;5008045;28;20218;-77
2023/01/30 12:16:14;;;;;;;10.40;1.90;;;5.90;1.00;;;;;;5008870;28;20270;-77
2023/01/30 12:19:04;;;;;;;10.77;2.63;;;5.80;1.00;;;;;;5009882;28;20667;-77
2023/01/30 12:21:48;;;;;;;7.80;2.10;;;5.50;4.10;;;;;;5011220;28;20186;-78
2023/01/30 12:24:37;;;;;;;11.53;2.33;;;5.20;64.10;;;;;;5013568;28;20655;-78
2023/01/30 12:27:15;;;;;;;12.17;2.97;;;5.10;99.90;;;;;;5012149;28;20290;-77
2023/01/30 12:30:09;;;;;;;10.53;3.10;;;5.00;99.90;;;;;;5008434;28;20192;-77
2023/01/30 12:32:35;;;;;;;12.30;2.40;;;5.00;99.90;;;;;;5007958;28;20222;-77
2023/01/30 12:35:10;;;;;;;9.87;2.60;;;5.10;55.30;;;;;;5009364;28;20207;-77
2023/01/30 12:37:55;;;;;;;9.47;1.90;;;5.50;50.10;;;;;;5011939;28;20218;-77
2023/01/30 12:40:45;;;;;;;9.77;2.43;;;5.20;40.70;;;;;;5012295;28;20183;-76
2023/01/30 12:43:24;;;;;;;8.30;1.90;;;5.20;34.10;;;;;;5005722;28;20188;-76
2023/01/30 12:46:20;;;;;;;11.33;2.70;;;5.30;31.90;;;;;;5004603;28;20207;-77
2023/01/30 12:49:21;;;;;;;9.13;2.23;;;5.30;27.10;;;;;;5006054;28;21003;-77
2023/01/30 12:52:04;;;;;;;10.73;2.40;;;5.20;34.30;;;;;;4997464;28;20200;-76
2023/01/30 12:54:39;;;;;;;11.43;3.07;;;5.30;39.30;;;;;;5004439;28;20600;-76
2023/01/30 12:57:08;;;;;;;9.53;2.23;;;5.30;43.70;;;;;;5005798;28;20206;-76
2023/01/30 12:59:58;;;;;;;9.03;2.60;;;5.50;30.90;;;;;;5006797;28;20726;-77
2023/01/30 13:02:43;;;;;;;7.00;2.10;;;5.40;16.50;;;;;;5002524;28;20735;-76
2023/01/30 13:05:36;;;;;;;7.57;1.87;;;5.20;32.00;;;;;;5003712;28;20227;-76
2023/01/30 13:08:21;;;;;;;8.87;1.60;;;5.00;49.40;;;;;;5004782;28;20612;-78
2023/01/30 13:10:53;;;;;;;4.63;1.10;;;4.80;94.90;;;;;;5004434;28;20203;-74
2023/01/30 13:13:41;;;;;;;3.60;1.10;;;4.60;99.90;;;;;;5005148;28;20241;-76
2023/01/30 13:16:26;;;;;;;4.97;1.10;;;4.50;99.90;;;;;;5003435;28;20210;-76